createdAt,value
2018-05-18T00:01:18.286Z,98.71
2018-05-18T00:02:18.214Z,98.90
2018-05-18T00:04:09.968Z,97.08
2018-05-18T00:05:09.916Z,97.75
2018-05-18T00:07:01.660Z,97.85
2018-05-18T00:08:01.588Z,97.75
2018-05-18T00:09:53.351Z,97.27
2018-05-18T00:10:53.287Z,98.23
2018-05-18T00:12:45.058Z,99.08
2018-05-18T00:13:44.974Z,97.85
2018-05-18T00:15:36.717Z,99.28
2018-05-18T00:16:36.654Z,98.52
2018-05-18T00:18:28.413Z,97.37
2018-05-18T00:19:28.346Z,98.61
2018-05-18T00:21:20.099Z,97.08
2018-05-18T00:22:20.034Z,98.42
2018-05-18T00:24:11.807Z,97.75
2018-05-18T00:25:11.735Z,98.03
2018-05-18T00:27:03.493Z,97.27
2018-05-18T00:28:03.421Z,98.42
2018-05-18T00:29:55.163Z,98.32
2018-05-18T00:30:55.116Z,97.94
2018-05-18T00:32:46.874Z,99.08
2018-05-18T00:33:46.788Z,97.94
2018-05-18T00:35:38.557Z,98.23
2018-05-18T00:36:38.491Z,98.42
2018-05-18T00:38:30.257Z,97.94
2018-05-18T00:39:30.187Z,98.03
2018-05-18T00:41:21.945Z,99.08
2018-05-18T00:42:21.890Z,97.37
2018-05-18T00:44:13.635Z,97.71
2018-05-18T00:45:13.565Z,96.94
2018-05-18T00:47:05.331Z,97.03
2018-05-18T00:48:05.250Z,94.74
2018-05-18T00:49:57.035Z,98.27
2018-05-18T00:50:56.945Z,98.37
2018-05-18T00:52:48.784Z,95.89
2018-05-18T00:53:48.697Z,96.56
2018-05-18T00:55:40.442Z,98.27
2018-05-18T00:56:40.372Z,96.27
2018-05-18T00:58:32.143Z,96.27
2018-05-18T00:59:32.068Z,97.32
2018-05-18T01:01:23.834Z,96.08
2018-05-18T01:02:23.769Z,94.36
2018-05-18T01:04:15.526Z,96.46
2018-05-18T01:05:15.459Z,94.27
2018-05-18T01:07:07.201Z,96.08
2018-05-18T01:08:07.138Z,94.65
2018-05-18T01:09:58.904Z,96.94
2018-05-18T01:10:58.827Z,94.74
2018-05-18T01:12:50.589Z,95.03
2018-05-18T01:13:50.512Z,94.56
2018-05-18T01:15:42.281Z,95.51
2018-05-18T01:16:42.210Z,93.98
2018-05-18T01:18:33.993Z,94.27
2018-05-18T01:19:33.921Z,94.93
2018-05-18T01:21:25.663Z,95.70
2018-05-18T01:22:25.604Z,95.70
2018-05-18T01:24:17.355Z,95.70
2018-05-18T01:25:17.283Z,95.89
2018-05-18T01:27:09.060Z,94.56
2018-05-18T01:28:08.993Z,95.70
2018-05-18T01:30:00.776Z,93.41
2018-05-18T01:31:00.701Z,94.46
2018-05-18T01:32:52.447Z,94.93
2018-05-18T01:33:52.388Z,94.79
2018-05-18T01:35:44.139Z,93.74
2018-05-18T01:36:44.072Z,93.27
2018-05-18T01:38:35.825Z,94.51
2018-05-18T01:39:35.753Z,93.55
2018-05-18T01:41:27.525Z,95.65
2018-05-18T01:42:27.462Z,93.36
2018-05-18T01:44:19.229Z,94.98
2018-05-18T01:45:19.143Z,92.88
2018-05-18T01:47:10.899Z,94.03
2018-05-18T01:48:10.841Z,94.89
2018-05-18T01:50:02.600Z,93.46
2018-05-18T01:51:02.521Z,92.98
2018-05-18T01:52:54.276Z,92.79
2018-05-18T01:53:54.212Z,94.22
2018-05-18T01:55:45.973Z,94.32
2018-05-18T01:56:45.902Z,94.12
2018-05-18T01:58:37.692Z,93.36
2018-05-18T01:59:37.610Z,92.88
2018-05-18T02:01:29.353Z,94.98
2018-05-18T02:02:29.292Z,94.51
2018-05-18T02:04:21.064Z,94.32
2018-05-18T02:05:20.979Z,93.08
2018-05-18T02:07:12.732Z,94.70
2018-05-18T02:08:12.671Z,91.27
2018-05-18T02:10:04.436Z,94.12
2018-05-18T02:11:04.368Z,91.36
2018-05-18T02:12:56.102Z,93.36
2018-05-18T02:13:56.037Z,93.93
2018-05-18T02:15:47.834Z,92.88
2018-05-18T02:16:47.761Z,94.74
2018-05-18T02:18:39.551Z,92.17
2018-05-18T02:19:39.485Z,89.89
2018-05-18T02:21:31.285Z,91.79
2018-05-18T02:22:31.212Z,93.22
2018-05-18T02:24:22.976Z,91.22
2018-05-18T02:25:22.899Z,93.03
2018-05-18T02:27:14.654Z,91.13
2018-05-18T02:28:14.584Z,92.36
2018-05-18T02:30:06.345Z,92.36
2018-05-18T02:31:06.278Z,92.46
2018-05-18T02:32:58.022Z,90.08
2018-05-18T02:33:57.952Z,93.70
2018-05-18T02:35:49.723Z,89.89
2018-05-18T02:36:49.716Z,92.65
2018-05-18T02:38:41.390Z,90.36
2018-05-18T02:39:41.328Z,90.36
2018-05-18T02:41:33.092Z,90.84
2018-05-18T02:42:33.012Z,90.08
2018-05-18T02:44:24.774Z,90.08
2018-05-18T02:45:24.704Z,90.36
2018-05-18T02:47:16.476Z,90.36
2018-05-18T02:48:16.401Z,89.60
2018-05-18T02:50:08.176Z,92.08
2018-05-18T02:51:08.108Z,91.36
2018-05-18T02:52:59.875Z,91.13
2018-05-18T02:53:59.805Z,93.12
2018-05-18T02:55:51.550Z,94.08
2018-05-18T02:56:51.482Z,91.22
2018-05-18T02:58:43.224Z,91.22
2018-05-18T02:59:43.164Z,90.17
2018-05-18T03:01:34.930Z,90.45
2018-05-18T03:02:34.847Z,90.74
2018-05-18T03:04:26.595Z,92.46
2018-05-18T03:05:26.536Z,91.98
2018-05-18T03:07:18.304Z,95.08
2018-05-18T03:08:18.231Z,93.93
2018-05-18T03:10:10.036Z,93.27
2018-05-18T03:11:09.917Z,91.83
2018-05-18T03:13:01.659Z,94.70
2018-05-18T03:14:01.604Z,94.70
2018-05-18T03:15:53.426Z,95.17
2018-05-18T03:16:53.339Z,92.79
2018-05-18T03:18:45.097Z,94.70
2018-05-18T03:19:45.032Z,95.75
2018-05-18T03:21:36.893Z,95.17
2018-05-18T03:22:36.810Z,93.93
2018-05-18T03:24:28.596Z,94.22
2018-05-18T03:25:28.541Z,95.46
2018-05-18T03:27:20.342Z,92.69
2018-05-18T03:28:20.250Z,96.98
2018-05-18T03:30:12.017Z,94.22
2018-05-18T03:31:12.021Z,94.22
2018-05-18T03:33:03.744Z,93.55
2018-05-18T03:34:03.693Z,94.41
2018-05-18T03:35:55.563Z,94.03
2018-05-18T03:36:55.470Z,94.60
2018-05-18T03:38:47.248Z,95.08
2018-05-18T03:39:47.167Z,96.80
2018-05-18T03:41:38.932Z,95.65
2018-05-18T03:42:38.856Z,94.51
2018-05-18T03:44:30.638Z,98.13
2018-05-18T03:45:30.611Z,95.46
2018-05-18T03:47:22.324Z,95.37
2018-05-18T03:48:22.250Z,96.51
2018-05-18T03:50:13.998Z,97.08
2018-05-18T03:51:13.931Z,95.84
2018-05-18T03:53:05.722Z,94.70
2018-05-18T03:54:05.644Z,96.22
2018-05-18T03:55:57.412Z,95.08
2018-05-18T03:56:57.343Z,96.41
2018-05-18T03:58:49.094Z,96.98
2018-05-18T03:59:49.028Z,94.98
2018-05-18T04:01:40.798Z,97.46
2018-05-18T04:02:40.728Z,95.84
2018-05-18T04:04:32.464Z,96.98
2018-05-18T04:05:32.418Z,95.84
2018-05-18T04:07:24.174Z,95.56
2018-05-18T04:08:24.090Z,96.22
2018-05-18T04:10:15.861Z,96.61
2018-05-18T04:11:15.775Z,98.13
2018-05-18T04:13:07.537Z,96.22
2018-05-18T04:14:07.464Z,97.66
2018-05-18T04:15:59.222Z,96.98
2018-05-18T04:16:59.159Z,99.18
2018-05-18T04:18:50.928Z,97.22
2018-05-18T04:19:50.867Z,99.42
2018-05-18T04:21:42.734Z,99.61
2018-05-18T04:22:42.561Z,99.99
2018-05-18T04:24:34.333Z,99.99
2018-05-18T04:25:34.265Z,99.99
2018-05-18T04:27:26.050Z,99.99
2018-05-18T04:28:25.968Z,99.99
2018-05-18T04:30:17.734Z,99.99
2018-05-18T04:31:17.651Z,99.99
2018-05-18T04:33:09.419Z,99.99
2018-05-18T04:34:09.338Z,99.99
2018-05-18T04:36:01.100Z,99.99
2018-05-18T04:37:01.034Z,99.99
2018-05-18T04:38:52.800Z,99.99
2018-05-18T04:39:52.724Z,99.99
2018-05-18T04:41:44.493Z,99.99
2018-05-18T04:42:44.427Z,99.99
2018-05-18T04:44:36.218Z,99.99
2018-05-18T04:45:36.137Z,99.99
2018-05-18T04:47:27.901Z,99.99
2018-05-18T04:48:27.829Z,99.99
2018-05-18T04:50:19.589Z,99.99
2018-05-18T04:51:19.526Z,99.99
2018-05-18T04:53:11.309Z,99.99
2018-05-18T04:54:11.231Z,99.99
2018-05-18T04:56:02.993Z,99.99
2018-05-18T04:57:02.925Z,99.99
2018-05-18T04:58:54.783Z,99.99
2018-05-18T04:59:54.638Z,99.99
2018-05-18T05:01:46.422Z,99.99
2018-05-18T05:02:46.371Z,99.99
2018-05-18T05:04:38.127Z,99.99
2018-05-18T05:05:38.047Z,99.99
2018-05-18T05:07:29.869Z,99.99
2018-05-18T05:08:29.765Z,99.99
2018-05-18T05:10:21.527Z,99.99
2018-05-18T05:11:21.461Z,99.99
2018-05-18T05:13:13.221Z,99.99
2018-05-18T05:14:13.151Z,99.99
2018-05-18T05:16:04.901Z,99.99
2018-05-18T05:17:04.852Z,99.99
2018-05-18T05:18:56.628Z,99.99
2018-05-18T05:19:56.554Z,99.99
2018-05-18T05:21:48.312Z,99.99
2018-05-18T05:22:48.243Z,99.99
2018-05-18T05:24:40.015Z,99.99
2018-05-18T05:25:39.939Z,99.99
2018-05-18T05:27:31.699Z,99.99
2018-05-18T05:28:31.637Z,99.99
2018-05-18T05:30:23.435Z,99.99
2018-05-18T05:31:23.338Z,99.99
2018-05-18T05:33:15.115Z,99.99
2018-05-18T05:34:15.038Z,99.99
2018-05-18T05:36:06.799Z,99.99
2018-05-18T05:37:06.736Z,99.99
2018-05-18T05:38:58.511Z,99.99
2018-05-18T05:39:58.435Z,99.99
2018-05-18T05:41:50.202Z,99.99
2018-05-18T05:42:50.141Z,99.99
2018-05-18T05:44:41.912Z,99.99
2018-05-18T05:45:41.838Z,99.99
2018-05-18T05:47:33.605Z,99.99
2018-05-18T05:48:33.548Z,99.99
2018-05-18T05:50:25.317Z,99.99
2018-05-18T05:51:25.238Z,99.99
2018-05-18T05:53:17.010Z,99.99
2018-05-18T05:54:16.952Z,99.99
2018-05-18T05:56:08.704Z,99.99
2018-05-18T05:57:08.638Z,99.99
2018-05-18T05:59:00.437Z,99.99
2018-05-18T06:00:00.365Z,99.99
2018-05-18T06:01:52.123Z,99.99
2018-05-18T06:02:52.068Z,99.99
2018-05-18T06:04:43.845Z,99.99
2018-05-18T06:05:43.768Z,99.99
2018-05-18T06:07:35.529Z,99.99
2018-05-18T06:08:35.464Z,99.99
2018-05-18T06:10:27.313Z,99.99
2018-05-18T06:11:27.225Z,99.99
2018-05-18T06:13:18.979Z,99.99
2018-05-18T06:14:18.942Z,99.99
2018-05-18T06:16:10.711Z,99.99
2018-05-18T06:17:10.636Z,99.99
2018-05-18T06:19:02.429Z,99.99
2018-05-18T06:20:02.346Z,99.99
2018-05-18T06:21:54.103Z,99.99
2018-05-18T06:22:54.040Z,99.99
2018-05-18T06:24:45.853Z,99.99
2018-05-18T06:25:45.752Z,99.99
2018-05-18T06:27:37.508Z,99.99
2018-05-18T06:28:37.523Z,99.99
2018-05-18T06:30:29.219Z,99.99
2018-05-18T06:31:29.134Z,99.99
2018-05-18T06:33:20.895Z,99.99
2018-05-18T06:34:20.836Z,99.99
2018-05-18T06:36:12.608Z,99.99
2018-05-18T06:37:12.531Z,99.99
2018-05-18T06:39:04.360Z,99.99
2018-05-18T06:40:04.286Z,99.99
2018-05-18T06:41:56.058Z,99.99
2018-05-18T06:42:55.986Z,99.99
2018-05-18T06:44:47.783Z,99.99
2018-05-18T06:45:47.712Z,99.99
2018-05-18T06:47:39.477Z,99.99
2018-05-18T06:48:39.406Z,99.99
2018-05-18T06:50:31.197Z,99.99
2018-05-18T06:51:31.119Z,99.99
2018-05-18T06:53:22.879Z,99.99
2018-05-18T06:54:22.854Z,99.99
2018-05-18T06:56:14.600Z,99.99
2018-05-18T06:57:14.528Z,99.99
2018-05-18T06:59:06.309Z,99.99
2018-05-18T07:00:06.239Z,99.99
2018-05-18T07:01:58.033Z,99.99
2018-05-18T07:02:57.959Z,99.99
2018-05-18T07:04:49.724Z,99.99
2018-05-18T07:05:49.651Z,99.99
2018-05-18T07:07:41.463Z,99.99
2018-05-18T07:08:41.356Z,99.99
2018-05-18T07:10:33.174Z,99.99
2018-05-18T07:11:33.050Z,99.99
2018-05-18T07:13:24.809Z,99.99
2018-05-18T07:14:24.745Z,99.99
2018-05-18T07:16:16.510Z,99.99
2018-05-18T07:17:16.432Z,99.99
2018-05-18T07:19:08.224Z,99.99
2018-05-18T07:20:08.141Z,99.99
2018-05-18T07:21:59.910Z,99.99
2018-05-18T07:22:59.892Z,99.99
2018-05-18T07:24:51.598Z,99.99
2018-05-18T07:25:51.569Z,99.99
2018-05-18T07:27:43.346Z,99.99
2018-05-18T07:28:43.266Z,99.99
2018-05-18T07:30:35.047Z,98.24
2018-05-18T07:31:34.970Z,94.88
2018-05-18T07:33:26.759Z,89.01
2018-05-18T07:34:26.675Z,86.55
2018-05-18T07:36:18.548Z,81.47
2018-05-18T07:37:18.382Z,77.59
2018-05-18T07:39:10.144Z,74.12
2018-05-18T07:40:10.085Z,72.83
2018-05-18T07:42:01.871Z,76.26
2018-05-18T07:43:01.805Z,76.45
2018-05-18T07:44:53.565Z,79.11
2018-05-18T07:45:53.506Z,79.90
2018-05-18T07:47:45.300Z,81.16
2018-05-18T07:48:45.227Z,80.77
2018-05-18T07:50:37.008Z,83.62
2018-05-18T07:51:36.931Z,82.94
2018-05-18T07:53:28.716Z,81.83
2018-05-18T07:54:28.651Z,79.85
2018-05-18T07:56:20.444Z,80.77
2018-05-18T07:57:20.359Z,80.29
2018-05-18T07:59:12.141Z,79.90
2018-05-18T08:00:12.072Z,81.48
2018-05-18T08:02:03.875Z,76.75
2018-05-18T08:03:03.794Z,76.28
2018-05-18T08:04:55.593Z,80.58
2018-05-18T08:05:55.532Z,81.02
2018-05-18T08:07:47.367Z,84.63
2018-05-18T08:08:47.229Z,84.21
2018-05-18T08:10:38.989Z,84.58
2018-05-18T08:11:38.962Z,83.42
2018-05-18T08:13:30.714Z,81.83
2018-05-18T08:14:30.641Z,82.70
2018-05-18T08:16:22.417Z,84.25
2018-05-18T08:17:22.351Z,84.19
2018-05-18T08:19:14.122Z,83.77
2018-05-18T08:20:14.057Z,84.69
2018-05-18T08:22:05.846Z,86.22
2018-05-18T08:23:05.775Z,85.94
2018-05-18T08:24:57.544Z,87.09
2018-05-18T08:25:57.488Z,88.15
2018-05-18T08:27:49.272Z,86.71
2018-05-18T08:28:49.180Z,87.48
2018-05-18T08:30:40.978Z,87.62
2018-05-18T08:31:40.894Z,87.82
2018-05-18T08:33:32.674Z,88.31
2018-05-18T08:34:32.603Z,89.94
2018-05-18T08:36:24.386Z,91.66
2018-05-18T08:37:24.309Z,91.23
2018-05-18T08:39:16.117Z,91.04
2018-05-18T08:40:16.019Z,91.13
2018-05-18T08:42:07.815Z,90.46
2018-05-18T08:43:07.743Z,90.37
2018-05-18T08:44:59.545Z,89.50
2018-05-18T08:45:59.477Z,90.17
2018-05-18T08:47:51.278Z,89.93
2018-05-18T08:48:51.198Z,88.83
2018-05-18T08:50:42.954Z,90.51
2018-05-18T08:51:42.896Z,89.98
2018-05-18T08:53:34.725Z,90.84
2018-05-18T08:54:34.656Z,90.37
2018-05-18T08:56:26.409Z,90.37
2018-05-18T08:57:26.354Z,90.60
2018-05-18T08:59:18.137Z,89.74
2018-05-18T09:00:18.048Z,90.99
2018-05-18T09:02:09.818Z,89.07
2018-05-18T09:03:09.751Z,88.45
2018-05-18T09:05:01.528Z,89.93
2018-05-18T09:06:01.459Z,89.45
2018-05-18T09:07:53.224Z,89.26
2018-05-18T09:08:53.146Z,89.93
2018-05-18T09:10:44.907Z,89.31
2018-05-18T09:11:44.845Z,89.54
2018-05-18T09:13:36.637Z,88.68
2018-05-18T09:14:36.551Z,88.68
2018-05-18T09:16:28.336Z,89.60
2018-05-18T09:17:28.274Z,89.54
2018-05-18T09:19:20.059Z,88.68
2018-05-18T09:20:19.985Z,87.67
2018-05-18T09:22:11.779Z,86.32
2018-05-18T09:23:11.707Z,86.65
2018-05-18T09:25:03.501Z,85.69
2018-05-18T09:26:03.424Z,85.84
2018-05-18T09:27:55.211Z,85.11
2018-05-18T09:28:55.143Z,85.65
2018-05-18T09:30:46.907Z,86.22
2018-05-18T09:31:46.853Z,87.62
2018-05-18T09:33:38.648Z,86.95
2018-05-18T09:34:38.591Z,87.72
2018-05-18T09:36:30.345Z,87.09
2018-05-18T09:37:30.293Z,85.11
2018-05-18T09:39:22.059Z,85.69
2018-05-18T09:40:21.994Z,84.29
2018-05-18T09:42:13.768Z,85.21
2018-05-18T09:43:13.761Z,85.50
2018-05-18T09:45:05.504Z,84.83
2018-05-18T09:46:05.412Z,85.27
2018-05-18T09:47:57.181Z,86.13
2018-05-18T09:48:57.112Z,84.98
2018-05-18T09:50:49.394Z,86.91
2018-05-18T09:51:49.334Z,88.35
2018-05-18T09:53:41.107Z,88.59
2018-05-18T09:54:41.179Z,88.97
2018-05-18T09:56:32.811Z,88.59
2018-05-18T09:57:32.748Z,88.83
2018-05-18T09:59:24.537Z,89.31
2018-05-18T10:00:24.480Z,88.59
2018-05-18T10:02:16.232Z,87.87
2018-05-18T10:03:16.170Z,87.77
2018-05-18T10:05:07.951Z,87.82
2018-05-18T10:06:07.880Z,87.92
2018-05-18T10:07:59.689Z,87.43
2018-05-18T10:08:59.586Z,87.15
2018-05-18T10:10:51.400Z,86.76
2018-05-18T10:11:51.318Z,87.15
2018-05-18T10:13:43.096Z,87.87
2018-05-18T10:14:43.009Z,88.30
2018-05-18T10:16:34.782Z,88.06
2018-05-18T10:17:34.726Z,88.87
2018-05-18T10:19:26.490Z,86.13
2018-05-18T10:20:26.431Z,85.07
2018-05-18T10:22:18.184Z,86.13
2018-05-18T17:42:46.848Z,99.38
2018-05-18T17:43:46.771Z,98.86
2018-05-18T17:45:38.542Z,98.09
2018-05-18T17:46:38.476Z,98.57
2018-05-18T17:48:30.449Z,98.38
2018-05-18T17:49:30.238Z,99.43
2018-05-18T17:51:22.004Z,98.19
2018-05-18T17:52:21.938Z,98.95
2018-05-18T17:54:13.699Z,98.47
2018-05-18T17:55:13.625Z,99.05
2018-05-18T17:57:05.407Z,98.76
2018-05-18T17:58:05.317Z,99.19
2018-05-18T17:59:57.071Z,98.86
2018-05-18T18:00:56.994Z,99.15
2018-05-18T18:02:48.785Z,98.95
2018-05-18T18:03:48.730Z,98.57
2018-05-18T18:05:40.476Z,98.95
2018-05-18T18:06:40.401Z,99.24
2018-05-18T18:08:32.167Z,98.95
2018-05-18T18:09:32.098Z,99.05
2018-05-18T18:11:23.863Z,98.95
2018-05-18T18:12:23.793Z,99.05
2018-05-18T18:14:15.593Z,99.10
2018-05-18T18:15:15.513Z,99.19
2018-05-18T18:17:07.313Z,99.29
2018-05-18T18:18:07.213Z,98.52
2018-05-18T18:19:58.986Z,98.24
2018-05-18T18:20:58.918Z,98.90
2018-05-18T18:22:50.736Z,98.86
2018-05-18T18:23:50.661Z,98.33
2018-05-18T18:25:42.426Z,99.38
2018-05-18T18:26:42.358Z,99.00
2018-05-18T18:28:34.231Z,98.90
2018-05-18T18:29:34.046Z,99.48
2018-05-18T18:31:25.851Z,99.10
2018-05-18T18:32:25.779Z,98.52
2018-05-18T18:34:17.558Z,98.04
2018-05-18T18:35:17.483Z,98.90
2018-05-18T18:37:09.248Z,98.04
2018-05-18T18:38:09.197Z,97.56
2018-05-18T18:40:01.005Z,97.95
2018-05-18T18:41:00.926Z,96.99
2018-05-18T18:42:52.713Z,97.56
2018-05-18T18:43:52.638Z,98.14
2018-05-18T18:45:44.431Z,97.47
2018-05-18T18:46:44.355Z,98.14
2018-05-18T18:48:36.155Z,98.61
2018-05-18T18:49:36.081Z,98.33
2018-05-18T18:51:27.885Z,97.56
2018-05-18T18:52:27.805Z,97.66
2018-05-18T18:54:19.637Z,97.37
2018-05-18T18:55:19.559Z,97.90
2018-05-18T18:57:11.305Z,96.66
2018-05-18T18:58:11.242Z,96.18
2018-05-18T19:00:03.013Z,96.56
2018-05-18T19:01:03.016Z,97.33
2018-05-18T19:02:54.691Z,97.13
2018-05-18T19:03:54.625Z,97.71
2018-05-18T19:05:46.406Z,96.37
2018-05-18T19:06:46.333Z,97.52
2018-05-18T19:08:38.101Z,96.27
2018-05-18T19:09:38.031Z,95.98
2018-05-18T19:11:29.795Z,97.23
2018-05-18T19:12:29.731Z,97.52
2018-05-18T19:14:21.532Z,97.33
2018-05-18T19:15:21.519Z,97.23
2018-05-18T19:17:13.204Z,97.71
2018-05-18T19:18:13.152Z,97.23
2018-05-18T19:20:04.911Z,97.04
2018-05-18T19:21:04.841Z,97.71
2018-05-18T19:22:56.588Z,96.75
2018-05-18T19:23:56.521Z,97.52
2018-05-18T19:25:48.296Z,96.18
2018-05-18T19:26:48.220Z,95.98
2018-05-18T19:28:40.001Z,97.13
2018-05-18T19:29:39.941Z,96.56
2018-05-18T19:31:31.685Z,96.47
2018-05-18T19:32:31.708Z,97.37
2018-05-18T19:34:23.401Z,96.47
2018-05-18T19:35:23.313Z,97.75
2018-05-18T19:37:15.069Z,97.13
2018-05-18T19:38:15.010Z,96.70
2018-05-18T19:40:06.783Z,96.08
2018-05-18T19:41:06.711Z,96.08
2018-05-18T19:42:58.463Z,95.89
2018-05-18T19:43:58.400Z,95.22
2018-05-18T19:45:50.173Z,96.08
2018-05-18T19:46:50.102Z,95.79
2018-05-18T19:48:41.860Z,96.18
2018-05-18T19:49:41.784Z,97.33
2018-05-18T19:51:33.569Z,97.95
2018-05-18T19:52:33.494Z,97.66
2018-05-18T19:54:25.265Z,96.70
2018-05-18T19:55:25.211Z,97.61
2018-05-18T19:57:16.963Z,97.42
2018-05-18T19:58:16.894Z,96.18
2018-05-18T20:00:08.668Z,96.27
2018-05-18T20:01:08.596Z,96.18
2018-05-18T20:03:00.401Z,97.33
2018-05-18T20:04:00.388Z,95.70
2018-05-18T20:05:52.052Z,96.18
2018-05-18T20:06:51.979Z,97.42
2018-05-18T20:08:43.741Z,95.89
2018-05-18T20:09:43.680Z,96.27
2018-05-18T20:11:35.456Z,97.37
2018-05-18T20:12:35.380Z,96.80
2018-05-18T20:14:27.180Z,97.47
2018-05-18T20:15:27.079Z,97.47
2018-05-18T20:17:18.834Z,97.08
2018-05-18T20:18:18.770Z,97.95
2018-05-18T20:20:10.526Z,97.28
2018-05-18T20:21:10.474Z,96.61
2018-05-18T20:23:02.216Z,97.95
2018-05-18T20:24:02.154Z,97.56
2018-05-18T20:25:53.915Z,96.70
2018-05-18T20:26:53.842Z,97.47
2018-05-18T20:28:45.685Z,98.81
2018-05-18T20:29:45.547Z,98.90
2018-05-18T20:31:37.347Z,96.51
2018-05-18T20:32:37.252Z,96.66
2018-05-18T20:34:29.033Z,96.51
2018-05-18T20:35:28.976Z,96.89
2018-05-18T20:37:20.731Z,95.79
2018-05-18T20:38:20.661Z,96.08
2018-05-18T20:40:12.436Z,96.27
2018-05-18T20:41:12.456Z,96.75
2018-05-18T20:43:04.165Z,97.33
2018-05-18T20:44:04.057Z,97.42
2018-05-18T20:45:55.856Z,96.84
2018-05-18T20:46:55.776Z,97.23
2018-05-18T20:48:47.667Z,96.37
2018-05-18T20:49:47.604Z,96.47
2018-05-18T20:51:39.370Z,96.70
2018-05-18T20:52:39.294Z,96.70
2018-05-18T20:54:31.055Z,97.18
2018-05-18T20:55:30.987Z,97.71
2018-05-18T20:57:22.768Z,97.33
2018-05-18T20:58:22.690Z,97.47
2018-05-18T21:00:14.480Z,97.18
2018-05-18T21:01:14.399Z,96.89
2018-05-18T21:03:06.194Z,97.33
2018-05-18T21:04:06.137Z,97.23
2018-05-18T21:05:57.938Z,96.84
2018-05-18T21:06:57.856Z,96.27
2018-05-18T21:08:49.637Z,96.08
2018-05-18T21:09:49.564Z,96.27
2018-05-18T21:11:41.345Z,95.51
2018-05-18T21:12:41.268Z,95.89
2018-05-18T21:14:33.028Z,96.27
2018-05-18T21:15:32.975Z,94.93
2018-05-18T21:17:24.725Z,95.41
2018-05-18T21:18:24.672Z,95.89
2018-05-18T21:20:16.443Z,94.93
2018-05-18T21:21:16.413Z,96.37
2018-05-18T21:23:08.141Z,95.32
2018-05-18T21:24:08.066Z,95.32
2018-05-18T21:25:59.846Z,95.32
2018-05-18T21:26:59.787Z,94.65
2018-05-18T21:28:51.540Z,95.70
2018-05-18T21:29:51.481Z,94.74
2018-05-18T21:31:43.313Z,95.41
2018-05-18T21:32:43.232Z,95.12
2018-05-18T21:34:35.001Z,95.51
2018-05-18T21:35:34.936Z,94.93
2018-05-18T21:37:26.705Z,94.65
2018-05-18T21:38:26.627Z,94.55
2018-05-18T21:40:18.419Z,94.55
2018-05-18T21:41:18.361Z,94.65
2018-05-18T21:43:10.139Z,94.55
2018-05-18T21:44:10.043Z,93.40
2018-05-18T21:46:01.832Z,93.12
2018-05-18T21:47:01.749Z,93.02
2018-05-18T21:48:53.579Z,92.45
2018-05-18T21:49:53.495Z,92.54
2018-05-18T21:51:45.240Z,93.12
2018-05-18T21:52:45.167Z,93.98
2018-05-18T21:54:36.942Z,93.12
2018-05-18T21:55:36.886Z,93.21
2018-05-18T21:57:28.623Z,92.83
2018-05-18T21:58:28.556Z,92.83
2018-05-18T22:00:20.318Z,93.50
2018-05-18T22:01:20.260Z,93.69
2018-05-18T22:03:12.021Z,92.64
2018-05-18T22:04:11.949Z,93.12
2018-05-18T22:06:03.833Z,94.17
2018-05-18T22:07:03.636Z,93.98
2018-05-18T22:08:55.404Z,93.60
2018-05-18T22:09:55.330Z,93.12
2018-05-18T22:11:47.107Z,93.98
2018-05-18T22:12:47.033Z,93.69
2018-05-18T22:14:38.785Z,93.79
2018-05-18T22:15:38.719Z,94.65
2018-05-18T22:17:30.489Z,94.46
2018-05-18T22:18:30.410Z,94.65
2018-05-18T22:20:22.155Z,94.12
2018-05-18T22:21:22.093Z,94.60
2018-05-18T22:23:13.870Z,94.93
2018-05-18T22:24:13.798Z,94.93
2018-05-18T22:26:05.544Z,95.51
2018-05-18T22:27:05.507Z,95.51
2018-05-18T22:28:57.278Z,95.22
2018-05-18T22:29:57.183Z,95.51
2018-05-18T22:31:48.958Z,94.17
2018-05-18T22:32:48.887Z,94.26
2018-05-18T22:34:40.650Z,95.03
2018-05-18T22:35:40.583Z,94.65
2018-05-18T22:37:32.365Z,94.65
2018-05-18T22:38:32.316Z,93.69
2018-05-18T22:40:24.031Z,93.98
2018-05-18T22:41:23.970Z,93.69
2018-05-18T22:43:15.735Z,94.46
2018-05-18T22:44:15.661Z,94.07
2018-05-18T22:46:07.443Z,94.65
2018-05-18T22:47:07.382Z,95.12
2018-05-18T22:48:59.192Z,94.74
2018-05-18T22:49:59.125Z,94.46
2018-05-18T22:51:50.874Z,94.84
2018-05-18T22:52:50.814Z,95.32
2018-05-18T22:54:42.601Z,95.51
2018-05-18T22:55:42.504Z,95.22
2018-05-18T22:57:34.281Z,94.46
2018-05-18T22:58:34.207Z,94.55
2018-05-18T23:00:25.956Z,95.41
2018-05-18T23:01:25.888Z,94.46
2018-05-18T23:03:17.652Z,94.26
2018-05-18T23:04:17.571Z,95.12
2018-05-18T23:06:09.337Z,95.03
2018-05-18T23:07:09.275Z,93.79
2018-05-18T23:09:01.047Z,94.74
2018-05-18T23:10:00.968Z,94.46
2018-05-18T23:11:52.726Z,95.22
2018-05-18T23:12:52.657Z,93.60
2018-05-18T23:14:44.437Z,93.21
2018-05-18T23:15:44.356Z,93.79
2018-05-18T23:17:36.109Z,93.60
2018-05-18T23:18:36.044Z,93.79
2018-05-18T23:20:27.818Z,93.60
2018-05-18T23:21:27.741Z,93.79
2018-05-18T23:23:19.503Z,93.79
2018-05-18T23:24:19.432Z,93.60
2018-05-18T23:26:11.209Z,94.55
2018-05-18T23:27:11.142Z,92.74
2018-05-18T23:29:02.909Z,94.55
2018-05-18T23:30:02.840Z,95.22
2018-05-18T23:31:54.610Z,93.98
2018-05-18T23:32:54.601Z,93.31
2018-05-18T23:34:46.296Z,93.40
2018-05-18T23:35:46.219Z,93.31
2018-05-18T23:37:37.965Z,94.26
2018-05-18T23:38:37.907Z,94.84
2018-05-18T23:40:29.686Z,93.12
2018-05-18T23:41:29.612Z,93.40
2018-05-18T23:43:21.389Z,94.55
2018-05-18T23:44:21.313Z,94.46
2018-05-18T23:46:13.075Z,94.55
2018-05-18T23:47:13.009Z,95.51
2018-05-18T23:49:04.779Z,94.74
2018-05-18T23:50:04.705Z,95.03
2018-05-18T23:51:56.449Z,94.55
2018-05-18T23:52:56.450Z,94.07
2018-05-18T23:54:48.179Z,93.40
2018-05-18T23:55:48.107Z,94.36
2018-05-18T23:57:39.898Z,94.74
2018-05-18T23:58:39.838Z,94.17
